createdAt,value
2017-08-23T00:00:32.740Z,1008.47
2017-08-23T00:01:13.136Z,1008.47
2017-08-23T00:01:53.834Z,1008.5
2017-08-23T00:02:34.132Z,1008.42
2017-08-23T00:03:14.474Z,1008.42
2017-08-23T00:03:54.841Z,1008.44
2017-08-23T00:04:35.370Z,1008.46
2017-08-23T00:05:15.758Z,1008.41
2017-08-23T00:05:56.165Z,1008.44
2017-08-23T00:06:36.545Z,1008.43
2017-08-23T00:07:16.979Z,1008.42
2017-08-23T00:07:57.449Z,1008.42
2017-08-23T00:08:37.844Z,1008.46
2017-08-23T00:09:18.255Z,1008.44
2017-08-23T00:09:58.665Z,1008.43
2017-08-23T00:10:39.057Z,1008.42
2017-08-23T00:11:19.532Z,1008.43
2017-08-23T00:11:59.940Z,1008.44
2017-08-23T00:12:40.393Z,1008.42
2017-08-23T00:13:20.860Z,1008.43
2017-08-23T00:14:01.306Z,1008.38
2017-08-23T00:14:41.716Z,1008.43
2017-08-23T00:15:22.128Z,1008.45
2017-08-23T00:16:02.509Z,1008.41
2017-08-23T00:16:42.979Z,1008.44
2017-08-23T00:17:23.527Z,1008.45
2017-08-23T00:18:03.982Z,1008.45
2017-08-23T00:18:44.419Z,1008.47
2017-08-23T00:19:24.779Z,1008.43
2017-08-23T00:20:05.219Z,1008.43
2017-08-23T00:20:45.646Z,1008.42
2017-08-23T00:21:25.976Z,1008.43
2017-08-23T00:25:58.014Z,1008.4
2017-08-23T00:26:38.842Z,1008.41
2017-08-23T00:27:22.214Z,1008.37
2017-08-23T00:28:02.740Z,1008.39
2017-08-23T00:28:42.992Z,1008.37
2017-08-23T00:29:23.583Z,1008.39
2017-08-23T00:30:03.977Z,1008.37
2017-08-23T00:30:44.401Z,1008.36
2017-08-23T00:31:24.889Z,1008.36
2017-08-23T00:32:06.893Z,1008.36
2017-08-23T00:32:47.272Z,1008.33
2017-08-23T00:33:27.713Z,1008.36
2017-08-23T00:34:08.222Z,1008.39
2017-08-23T00:34:51.357Z,1008.36
2017-08-23T00:35:31.748Z,1008.36
2017-08-23T00:36:12.224Z,1008.34
2017-08-23T00:36:52.619Z,1008.37
2017-08-23T00:37:33.042Z,1008.38
2017-08-23T00:38:13.448Z,1008.33
2017-08-23T00:38:53.864Z,1008.32
2017-08-23T00:39:34.434Z,1008.33
2017-08-23T00:40:14.874Z,1008.33
2017-08-23T00:40:55.497Z,1008.3
2017-08-23T00:41:35.893Z,1008.31
2017-08-23T00:42:20.011Z,1008.29
2017-08-23T00:43:01.655Z,1008.27
2017-08-23T00:43:42.115Z,1008.26
2017-08-23T00:44:22.486Z,1008.3
2017-08-23T00:45:05.029Z,1008.27
2017-08-23T00:45:45.337Z,1008.26
2017-08-23T00:46:25.797Z,1008.24
2017-08-23T00:47:06.265Z,1008.3
2017-08-23T00:47:46.666Z,1008.27
2017-08-23T00:48:27.186Z,1008.27
2017-08-23T00:49:07.559Z,1008.24
2017-08-23T00:49:48.213Z,1008.25
2017-08-23T00:50:30.394Z,1008.27
2017-08-23T00:51:10.771Z,1008.3
2017-08-23T00:51:51.253Z,1008.28
2017-08-23T00:52:34.399Z,1008.27
2017-08-23T00:53:17.418Z,1008.27
2017-08-23T00:53:57.846Z,1008.26
2017-08-23T00:54:38.327Z,1008.3
2017-08-23T00:55:18.749Z,1008.25
2017-08-23T00:55:59.123Z,1008.27
2017-08-23T00:56:41.690Z,1008.25
2017-08-23T00:57:22.077Z,1008.3
2017-08-23T00:58:02.483Z,1008.31
2017-08-23T00:58:43.227Z,1008.35
2017-08-23T00:59:23.423Z,1008.34
2017-08-23T01:00:03.856Z,1008.39
2017-08-23T01:00:44.270Z,1008.38
2017-08-23T01:01:24.697Z,1008.37
2017-08-23T01:02:05.132Z,1008.37
2017-08-23T01:02:45.536Z,1008.37
2017-08-23T01:03:25.920Z,1008.37
2017-08-23T01:04:06.339Z,1008.36
2017-08-23T01:04:46.772Z,1008.37
2017-08-23T01:05:27.156Z,1008.35
2017-08-23T01:06:07.564Z,1008.37
2017-08-23T01:06:47.987Z,1008.36
2017-08-23T01:07:28.499Z,1008.34
2017-08-23T01:08:09.072Z,1008.34
2017-08-23T01:08:49.368Z,1008.33
2017-08-23T01:09:29.922Z,1008.31
2017-08-23T01:10:10.263Z,1008.36
2017-08-23T01:10:50.646Z,1008.33
2017-08-23T01:14:54.485Z,1008.41
2017-08-23T01:15:34.993Z,1008.35
2017-08-23T01:16:15.330Z,1008.35
2017-08-23T01:16:55.849Z,1008.35
2017-08-23T01:17:36.329Z,1008.31
2017-08-23T01:18:16.657Z,1008.36
2017-08-23T01:18:57.184Z,1008.36
2017-08-23T01:19:37.520Z,1008.36
2017-08-23T01:20:17.913Z,1008.37
2017-08-23T01:20:58.355Z,1008.36
2017-08-23T01:21:38.764Z,1008.4
2017-08-23T01:22:19.254Z,1008.36
2017-08-23T01:22:59.586Z,1008.37
2017-08-23T01:23:39.948Z,1008.38
2017-08-23T01:24:20.400Z,1008.4
2017-08-23T01:25:00.808Z,1008.38
2017-08-23T01:25:41.198Z,1008.36
2017-08-23T01:26:21.699Z,1008.4
2017-08-23T01:27:02.105Z,1008.38
2017-08-23T01:27:42.555Z,1008.35
2017-08-23T01:28:23.051Z,1008.37
2017-08-23T01:29:03.353Z,1008.38
2017-08-23T01:29:43.755Z,1008.35
2017-08-23T01:30:24.112Z,1008.34
2017-08-23T01:31:04.522Z,1008.37
2017-08-23T01:31:44.962Z,1008.36
2017-08-23T01:32:25.347Z,1008.34
2017-08-23T01:33:05.706Z,1008.33
2017-08-23T01:33:46.220Z,1008.34
2017-08-23T01:34:26.585Z,1008.34
2017-08-23T01:35:06.952Z,1008.36
2017-08-23T01:35:47.330Z,1008.36
2017-08-23T01:36:27.824Z,1008.36
2017-08-23T01:37:08.277Z,1008.34
2017-08-23T01:37:48.639Z,1008.36
2017-08-23T01:38:29.065Z,1008.36
2017-08-23T01:39:09.530Z,1008.38
2017-08-23T01:39:49.868Z,1008.32
2017-08-23T01:40:30.358Z,1008.36
2017-08-23T01:41:10.687Z,1008.37
2017-08-23T01:41:51.116Z,1008.36
2017-08-23T01:42:31.584Z,1008.39
2017-08-23T01:43:11.944Z,1008.44
2017-08-23T01:43:52.369Z,1008.39
2017-08-23T01:44:32.796Z,1008.39
2017-08-23T01:45:13.166Z,1008.36
2017-08-23T01:45:53.609Z,1008.4
2017-08-23T01:46:34.036Z,1008.4
2017-08-23T01:47:14.390Z,1008.37
2017-08-23T01:47:54.827Z,1008.36
2017-08-23T01:48:35.278Z,1008.39
2017-08-23T01:49:15.734Z,1008.34
2017-08-23T01:49:56.022Z,1008.38
2017-08-23T01:50:36.442Z,1008.38
2017-08-23T01:51:16.945Z,1008.36
2017-08-23T01:51:57.373Z,1008.38
2017-08-23T01:52:37.773Z,1008.37
2017-08-23T01:53:18.222Z,1008.36
2017-08-23T01:53:58.560Z,1008.35
2017-08-23T01:54:38.952Z,1008.35
2017-08-23T01:55:19.419Z,1008.38
2017-08-23T01:55:59.809Z,1008.38
2017-08-23T01:56:40.224Z,1008.41
2017-08-23T01:57:20.525Z,1008.36
2017-08-23T01:58:00.952Z,1008.37
2017-08-23T01:58:41.499Z,1008.37
2017-08-23T01:59:21.944Z,1008.35
2017-08-23T02:00:02.524Z,1008.36
2017-08-23T02:00:42.867Z,1008.36
2017-08-23T02:01:23.414Z,1008.36
2017-08-23T02:02:03.856Z,1008.34
2017-08-23T02:02:44.336Z,1008.35
2017-08-23T02:03:24.740Z,1008.37
2017-08-23T02:04:05.251Z,1008.36
2017-08-23T02:04:45.650Z,1008.35
2017-08-23T02:05:26.013Z,1008.36
2017-08-23T02:06:06.505Z,1008.33
2017-08-23T02:06:46.998Z,1008.34
2017-08-23T02:07:27.331Z,1008.34
2017-08-23T02:08:07.992Z,1008.35
2017-08-23T02:08:48.433Z,1008.32
2017-08-23T02:09:28.712Z,1008.33
2017-08-23T02:10:09.202Z,1008.28
2017-08-23T02:10:49.602Z,1008.28
2017-08-23T02:11:30.035Z,1008.28
2017-08-23T02:12:10.387Z,1008.24
2017-08-23T02:12:50.928Z,1008.26
2017-08-23T02:13:31.369Z,1008.23
2017-08-23T02:14:11.785Z,1008.25
2017-08-23T02:14:52.169Z,1008.26
2017-08-23T02:15:32.544Z,1008.26
2017-08-23T02:16:12.950Z,1008.25
2017-08-23T02:16:53.321Z,1008.26
2017-08-23T02:17:33.783Z,1008.23
2017-08-23T02:18:14.317Z,1008.26
2017-08-23T02:18:54.654Z,1008.26
2017-08-23T02:19:35.157Z,1008.25
2017-08-23T02:20:15.615Z,1008.24
2017-08-23T02:20:56.108Z,1008.28
2017-08-23T02:21:36.560Z,1008.25
2017-08-23T02:22:17.005Z,1008.24
2017-08-23T02:22:57.435Z,1008.26
2017-08-23T02:23:37.887Z,1008.25
2017-08-23T02:24:18.353Z,1008.2
2017-08-23T02:24:58.715Z,1008.22
2017-08-23T02:25:39.079Z,1008.26
2017-08-23T02:26:19.603Z,1008.22
2017-08-23T02:27:00.005Z,1008.19
2017-08-23T02:27:40.445Z,1008.21
2017-08-23T02:28:20.799Z,1008.2
2017-08-23T02:29:01.266Z,1008.2
2017-08-23T02:29:41.685Z,1008.17
2017-08-23T02:30:22.092Z,1008.21
2017-08-23T02:31:02.634Z,1008.22
2017-08-23T02:32:57.863Z,1008.21
2017-08-23T02:33:38.132Z,1008.22
2017-08-23T02:34:18.594Z,1008.24
2017-08-23T02:34:58.919Z,1008.21
2017-08-23T02:35:39.419Z,1008.19
2017-08-23T02:36:19.886Z,1008.19
2017-08-23T02:37:00.309Z,1008.19
2017-08-23T02:37:40.688Z,1008.17
2017-08-23T02:38:21.085Z,1008.15
2017-08-23T02:43:07.425Z,1008.06
2017-08-23T02:43:47.647Z,1008.08
2017-08-23T02:44:28.070Z,1008.09
2017-08-23T02:45:08.473Z,1008.04
2017-08-23T02:45:48.889Z,1008.03
2017-08-23T02:46:29.342Z,1008.01
2017-08-23T02:47:09.742Z,1008.03
2017-08-23T02:47:50.086Z,1008.04
2017-08-23T02:48:31.061Z,1008.03
2017-08-23T02:49:11.491Z,1007.98
2017-08-23T02:49:51.972Z,1008.02
2017-08-23T02:50:32.427Z,1008
2017-08-23T02:51:12.923Z,1007.98
2017-08-23T02:51:53.339Z,1007.98
2017-08-23T02:52:33.748Z,1008
2017-08-23T02:53:14.211Z,1007.96
2017-08-23T02:53:54.575Z,1007.98
2017-08-23T02:54:35.025Z,1007.96
2017-08-23T02:55:15.414Z,1007.95
2017-08-23T02:55:55.960Z,1007.97
2017-08-23T02:56:36.401Z,1007.94
2017-08-23T02:57:16.713Z,1007.93
2017-08-23T02:57:57.252Z,1007.96
2017-08-23T02:58:37.569Z,1007.92
2017-08-23T02:59:17.957Z,1007.88
2017-08-23T02:59:58.392Z,1007.91
2017-08-23T03:00:38.821Z,1007.93
2017-08-23T03:01:19.179Z,1007.88
2017-08-23T03:01:59.611Z,1007.93
2017-08-23T03:02:39.970Z,1007.93
2017-08-23T03:03:20.362Z,1007.9
2017-08-23T03:04:00.822Z,1007.87
2017-08-23T03:04:41.203Z,1007.93
2017-08-23T03:05:21.631Z,1007.88
2017-08-23T03:06:02.010Z,1007.89
2017-08-23T03:06:42.436Z,1007.93
2017-08-23T03:07:22.788Z,1007.94
2017-08-23T03:08:03.182Z,1007.86
2017-08-23T03:08:43.604Z,1007.9
2017-08-23T03:09:24.036Z,1007.89
2017-08-23T03:10:04.408Z,1007.88
2017-08-23T03:10:44.838Z,1007.89
2017-08-23T03:11:25.156Z,1007.89
2017-08-23T03:12:05.677Z,1007.87
2017-08-23T03:12:46.052Z,1007.87
2017-08-23T03:13:26.435Z,1007.83
2017-08-23T03:14:06.871Z,1007.83
2017-08-23T03:14:47.243Z,1007.83
2017-08-23T03:15:27.624Z,1007.84
2017-08-23T03:16:07.957Z,1007.85
2017-08-23T03:16:48.360Z,1007.8
2017-08-23T03:17:28.782Z,1007.81
2017-08-23T03:18:09.230Z,1007.81
2017-08-23T03:18:49.601Z,1007.79
2017-08-23T03:19:29.993Z,1007.75
2017-08-23T03:20:10.469Z,1007.77
2017-08-23T03:20:50.841Z,1007.73
2017-08-23T03:21:31.253Z,1007.75
2017-08-23T03:22:13.750Z,1007.7
2017-08-23T03:22:54.202Z,1007.7
2017-08-23T03:23:35.311Z,1007.67
2017-08-23T03:24:15.583Z,1007.71
2017-08-23T03:24:55.926Z,1007.7
2017-08-23T03:25:36.326Z,1007.69
2017-08-23T03:26:16.739Z,1007.72
2017-08-23T03:26:57.208Z,1007.7
2017-08-23T03:27:37.593Z,1007.69
2017-08-23T03:28:18.031Z,1007.69
2017-08-23T03:28:58.521Z,1007.68
2017-08-23T03:29:38.935Z,1007.73
2017-08-23T03:30:19.244Z,1007.68
2017-08-23T03:30:59.714Z,1007.69
2017-08-23T03:31:40.166Z,1007.68
2017-08-23T03:32:20.545Z,1007.68
2017-08-23T03:33:00.980Z,1007.7
2017-08-23T03:33:41.392Z,1007.66
2017-08-23T03:34:21.837Z,1007.69
2017-08-23T03:35:02.648Z,1007.66
2017-08-23T03:35:42.803Z,1007.68
2017-08-23T03:36:23.233Z,1007.65
2017-08-23T03:37:03.802Z,1007.7
2017-08-23T03:37:44.208Z,1007.66
2017-08-23T03:38:24.534Z,1007.73
2017-08-23T03:39:05.008Z,1007.71
2017-08-23T03:39:45.441Z,1007.67
2017-08-23T03:40:26.289Z,1007.71
2017-08-23T03:41:06.787Z,1007.7
2017-08-23T03:47:02.553Z,1007.63
2017-08-23T03:47:45.511Z,1007.63
2017-08-23T03:48:26.037Z,1007.66
2017-08-23T03:49:06.396Z,1007.66
2017-08-23T03:49:46.806Z,1007.63
2017-08-23T03:50:27.251Z,1007.67
2017-08-23T03:51:08.161Z,1007.68
2017-08-23T03:51:49.103Z,1007.66
2017-08-23T03:52:29.488Z,1007.69
2017-08-23T03:53:10.308Z,1007.7
2017-08-23T03:53:50.459Z,1007.68
2017-08-23T03:54:30.942Z,1007.73
2017-08-23T03:55:12.547Z,1007.68
2017-08-23T03:55:52.934Z,1007.69
2017-08-23T03:56:33.364Z,1007.7
2017-08-23T03:57:13.790Z,1007.69
2017-08-23T03:57:54.197Z,1007.69
2017-08-23T03:58:34.542Z,1007.68
2017-08-23T03:59:15.035Z,1007.73
2017-08-23T03:59:55.497Z,1007.68
2017-08-23T04:00:35.906Z,1007.7
2017-08-23T04:01:16.381Z,1007.66
2017-08-23T04:01:56.755Z,1007.66
2017-08-23T04:02:37.174Z,1007.66
2017-08-23T04:03:17.604Z,1007.64
2017-08-23T04:03:58.304Z,1007.67
2017-08-23T04:04:38.438Z,1007.66
2017-08-23T04:05:19.044Z,1007.63
2017-08-23T04:05:59.511Z,1007.67
2017-08-23T04:06:39.960Z,1007.65
2017-08-23T04:07:20.334Z,1007.64
2017-08-23T04:08:00.793Z,1007.64
2017-08-23T04:08:41.158Z,1007.63
2017-08-23T04:09:21.604Z,1007.66
2017-08-23T04:10:02.297Z,1007.61
2017-08-23T04:10:43.915Z,1007.67
2017-08-23T04:11:24.495Z,1007.66
2017-08-23T04:12:04.884Z,1007.65
2017-08-23T04:12:45.324Z,1007.65
2017-08-23T04:13:25.767Z,1007.68
2017-08-23T04:14:06.235Z,1007.66
2017-08-23T04:14:46.650Z,1007.63
2017-08-23T04:15:27.101Z,1007.63
2017-08-23T04:16:07.793Z,1007.64
2017-08-23T04:16:48.197Z,1007.62
2017-08-23T04:17:28.568Z,1007.62
2017-08-23T04:18:09.106Z,1007.62
2017-08-23T04:18:50.428Z,1007.65
2017-08-23T04:19:31.311Z,1007.65
2017-08-23T04:20:11.726Z,1007.64
2017-08-23T04:20:52.108Z,1007.63
2017-08-23T04:21:32.609Z,1007.67
2017-08-23T04:22:13.036Z,1007.64
2017-08-23T04:22:53.588Z,1007.65
2017-08-23T04:23:34.064Z,1007.67
2017-08-23T04:24:14.419Z,1007.63
2017-08-23T04:24:54.852Z,1007.6
2017-08-23T04:25:35.399Z,1007.62
2017-08-23T04:26:15.831Z,1007.61
2017-08-23T04:26:56.256Z,1007.59
2017-08-23T04:27:36.667Z,1007.56
2017-08-23T04:28:17.027Z,1007.56
2017-08-23T04:28:57.711Z,1007.56
2017-08-23T04:29:37.931Z,1007.56
2017-08-23T04:30:18.370Z,1007.58
2017-08-23T04:30:58.836Z,1007.53
2017-08-23T04:31:39.228Z,1007.57
2017-08-23T04:32:19.627Z,1007.55
2017-08-23T04:32:59.984Z,1007.55
2017-08-23T04:33:40.377Z,1007.53
2017-08-23T04:34:20.758Z,1007.53
2017-08-23T04:35:01.125Z,1007.49
2017-08-23T04:35:41.600Z,1007.52
2017-08-23T04:36:22.043Z,1007.5
2017-08-23T04:37:02.571Z,1007.49
2017-08-23T04:37:42.829Z,1007.5
2017-08-23T04:38:23.263Z,1007.54
2017-08-23T04:39:03.726Z,1007.52
2017-08-23T04:49:03.496Z,1007.63
2017-08-23T04:49:50.662Z,1007.57
2017-08-23T04:50:35.114Z,1007.58
2017-08-23T04:51:15.599Z,1007.61
2017-08-23T04:51:56.083Z,1007.58
2017-08-23T04:52:36.500Z,1007.59
2017-08-23T04:53:16.938Z,1007.55
2017-08-23T04:53:57.419Z,1007.56
2017-08-23T04:54:37.840Z,1007.56
2017-08-23T04:55:18.207Z,1007.52
2017-08-23T04:55:58.696Z,1007.51
2017-08-23T04:56:39.083Z,1007.5
2017-08-23T04:57:19.510Z,1007.49
2017-08-23T04:57:59.920Z,1007.49
2017-08-23T04:58:40.316Z,1007.46
2017-08-23T04:59:20.722Z,1007.48
2017-08-23T05:00:01.230Z,1007.51
2017-08-23T05:00:41.595Z,1007.53
2017-08-23T05:01:22.012Z,1007.49
2017-08-23T05:02:02.362Z,1007.49
2017-08-23T05:02:42.844Z,1007.47
2017-08-23T05:03:23.206Z,1007.52
2017-08-23T05:04:03.750Z,1007.51
2017-08-23T05:04:44.168Z,1007.54
2017-08-23T05:05:24.606Z,1007.46
2017-08-23T05:06:05.206Z,1007.47
2017-08-23T05:06:45.791Z,1007.43
2017-08-23T05:07:27.709Z,1007.43
2017-08-23T05:08:08.092Z,1007.4
2017-08-23T05:08:48.492Z,1007.4
2017-08-23T05:09:29.033Z,1007.4
2017-08-23T05:10:09.386Z,1007.39
2017-08-23T05:10:50.193Z,1007.37
2017-08-23T05:11:30.691Z,1007.36
2017-08-23T05:12:11.001Z,1007.43
2017-08-23T05:12:51.435Z,1007.41
2017-08-23T05:13:31.944Z,1007.44
2017-08-23T05:14:12.382Z,1007.37
2017-08-23T05:14:53.519Z,1007.38
2017-08-23T05:22:48.834Z,1007.4
2017-08-23T05:23:29.469Z,1007.43
2017-08-23T05:24:10.835Z,1007.42
2017-08-23T05:24:51.126Z,1007.42
2017-08-23T05:25:31.839Z,1007.45
2017-08-23T05:26:12.136Z,1007.44
2017-08-23T05:26:52.556Z,1007.46
2017-08-23T05:27:33.210Z,1007.43
2017-08-23T05:28:13.537Z,1007.45
2017-08-23T05:28:54.001Z,1007.45
2017-08-23T05:29:34.482Z,1007.48
2017-08-23T05:30:15.011Z,1007.45
2017-08-23T05:30:55.453Z,1007.45
2017-08-23T05:31:36.606Z,1007.47
2017-08-23T05:32:17.018Z,1007.47
2017-08-23T05:32:57.634Z,1007.48
2017-08-23T05:33:38.000Z,1007.53
2017-08-23T05:34:18.621Z,1007.53
2017-08-23T05:35:07.566Z,1007.55
2017-08-23T05:36:02.977Z,1007.6
2017-08-23T05:36:49.931Z,1007.58
2017-08-23T05:37:31.532Z,1007.63
2017-08-23T05:38:11.962Z,1007.59
2017-08-23T05:38:52.470Z,1007.66
2017-08-23T05:39:32.962Z,1007.66
2017-08-23T05:40:13.396Z,1007.72
2017-08-23T05:40:53.792Z,1007.69
2017-08-23T05:41:34.208Z,1007.63
2017-08-23T05:42:14.649Z,1007.64
2017-08-23T05:42:55.145Z,1007.6
2017-08-23T05:43:35.575Z,1007.64
2017-08-23T05:44:16.034Z,1007.66
2017-08-23T05:44:56.467Z,1007.65
2017-08-23T05:45:36.969Z,1007.68
2017-08-23T05:46:17.355Z,1007.72
2017-08-23T05:46:57.842Z,1007.72
2017-08-23T05:49:20.697Z,1007.68
2017-08-23T05:50:03.157Z,1007.72
2017-08-23T05:50:43.836Z,1007.71
2017-08-23T05:51:24.232Z,1007.75
2017-08-23T05:52:06.729Z,1007.79
2017-08-23T05:52:47.503Z,1007.74
2017-08-23T05:53:27.894Z,1007.71
2017-08-23T05:54:08.300Z,1007.74
2017-08-23T05:54:48.694Z,1007.75
2017-08-23T05:55:29.134Z,1007.73
2017-08-23T05:56:09.624Z,1007.78
2017-08-23T05:56:50.178Z,1007.74
2017-08-23T05:57:30.785Z,1007.76
2017-08-23T05:58:11.058Z,1007.72
2017-08-23T05:58:53.400Z,1007.76
2017-08-23T05:59:33.963Z,1007.72
2017-08-23T06:00:14.564Z,1007.77
2017-08-23T06:00:54.949Z,1007.74
2017-08-23T06:01:35.497Z,1007.79
2017-08-23T06:02:16.030Z,1007.84
2017-08-23T06:02:56.441Z,1007.8
2017-08-23T06:03:37.315Z,1007.87
2017-08-23T06:04:17.693Z,1007.81
2017-08-23T06:04:58.195Z,1007.8
2017-08-23T06:05:38.671Z,1007.8
2017-08-23T06:06:19.141Z,1007.84
2017-08-23T06:06:59.595Z,1007.8
2017-08-23T06:07:42.756Z,1007.79
2017-08-23T06:08:23.411Z,1007.72
2017-08-23T06:09:04.086Z,1007.75
2017-08-23T06:09:47.510Z,1007.7
2017-08-23T06:10:27.976Z,1007.71
2017-08-23T06:11:08.463Z,1007.73
2017-08-23T06:11:49.001Z,1007.79
2017-08-23T06:12:32.202Z,1007.71
2017-08-23T06:13:12.810Z,1007.71
2017-08-23T06:13:53.148Z,1007.75
2017-08-23T06:14:33.621Z,1007.69
2017-08-23T06:15:13.972Z,1007.76
2017-08-23T06:15:54.493Z,1007.74
2017-08-23T06:16:34.874Z,1007.71
2017-08-23T06:17:15.475Z,1007.74
2017-08-23T06:17:55.907Z,1007.75
2017-08-23T06:18:36.562Z,1007.77
2017-08-23T06:19:16.857Z,1007.73
2017-08-23T06:19:57.356Z,1007.75
2017-08-23T06:20:37.773Z,1007.76
2017-08-23T06:21:18.391Z,1007.72
2017-08-23T06:21:58.702Z,1007.73
2017-08-23T06:22:39.204Z,1007.75
2017-08-23T06:23:19.632Z,1007.74
2017-08-23T06:24:00.014Z,1007.76
2017-08-23T06:24:40.560Z,1007.75
2017-08-23T06:25:23.668Z,1007.75
2017-08-23T06:26:04.204Z,1007.75
2017-08-23T06:26:44.619Z,1007.72
2017-08-23T06:27:25.091Z,1007.74
2017-08-23T06:29:39.375Z,1007.71
2017-08-23T06:30:26.681Z,1007.68
2017-08-23T06:31:07.511Z,1007.66
2017-08-23T06:31:48.409Z,1007.69
2017-08-23T06:32:28.910Z,1007.66
2017-08-23T06:33:09.389Z,1007.67
2017-08-23T06:33:49.751Z,1007.64
2017-08-23T06:34:31.164Z,1007.65
2017-08-23T06:35:10.785Z,1007.69
2017-08-23T06:35:51.242Z,1007.68
2017-08-23T06:36:31.746Z,1007.71
2017-08-23T06:37:12.243Z,1007.71
2017-08-23T06:37:52.598Z,1007.69
2017-08-23T06:38:33.081Z,1007.73
2017-08-23T06:39:13.520Z,1007.73
2017-08-23T06:39:53.995Z,1007.77
2017-08-23T06:40:34.418Z,1007.77
2017-08-23T06:41:14.882Z,1007.77
2017-08-23T06:41:55.788Z,1007.78
2017-08-23T06:42:37.024Z,1007.8
2017-08-23T06:44:11.916Z,1007.72
2017-08-23T06:44:52.467Z,1007.7
2017-08-23T06:45:32.846Z,1007.74
2017-08-23T06:46:13.324Z,1007.74
2017-08-23T06:46:53.909Z,1007.68
2017-08-23T06:49:08.567Z,1007.77
2017-08-23T06:49:50.180Z,1007.76
2017-08-23T06:50:30.591Z,1007.71
2017-08-23T06:51:11.094Z,1007.76
2017-08-23T06:51:51.664Z,1007.75
2017-08-23T06:52:32.074Z,1007.81
2017-08-23T06:53:12.707Z,1007.76
2017-08-23T06:53:53.237Z,1007.79
2017-08-23T06:54:33.599Z,1007.77
2017-08-23T06:55:14.196Z,1007.75
2017-08-23T06:55:54.603Z,1007.73
2017-08-23T06:56:35.013Z,1007.77
2017-08-23T06:57:15.488Z,1007.72
2017-08-23T06:57:56.061Z,1007.78
2017-08-23T06:58:36.466Z,1007.83
2017-08-23T06:59:17.332Z,1007.82
2017-08-23T06:59:58.335Z,1007.83
2017-08-23T07:00:39.670Z,1007.85
2017-08-23T07:01:20.192Z,1007.84
2017-08-23T07:02:00.650Z,1007.79
2017-08-23T07:02:41.442Z,1007.79
2017-08-23T07:03:22.319Z,1007.73
2017-08-23T07:04:02.802Z,1007.77
2017-08-23T07:04:43.163Z,1007.7
2017-08-23T07:05:23.693Z,1007.7
2017-08-23T07:06:04.647Z,1007.69
2017-08-23T07:08:53.204Z,1007.63
2017-08-23T07:10:07.736Z,1007.67
2017-08-23T07:20:18.040Z,1007.58
2017-08-23T07:20:58.509Z,1007.55
2017-08-23T07:21:39.949Z,1007.59
2017-08-23T07:22:19.819Z,1007.55
2017-08-23T07:23:00.683Z,1007.55
2017-08-23T07:23:41.065Z,1007.59
2017-08-23T07:24:21.587Z,1007.62
2017-08-23T07:25:02.119Z,1007.57
2017-08-23T07:25:42.846Z,1007.56
2017-08-23T07:26:23.181Z,1007.57
2017-08-23T07:27:03.575Z,1007.62
2017-08-23T07:27:44.098Z,1007.58
2017-08-23T07:28:24.667Z,1007.62
2017-08-23T07:29:05.232Z,1007.6
2017-08-23T07:29:45.563Z,1007.61
2017-08-23T07:30:26.346Z,1007.6
2017-08-23T07:31:06.512Z,1007.59
2017-08-23T07:31:46.985Z,1007.58
2017-08-23T07:32:27.372Z,1007.62
2017-08-23T07:33:07.901Z,1007.65
2017-08-23T07:33:48.228Z,1007.64
2017-08-23T07:34:28.607Z,1007.57
2017-08-23T07:35:09.219Z,1007.63
2017-08-23T07:35:49.507Z,1007.6
2017-08-23T07:36:30.069Z,1007.63
2017-08-23T07:37:10.471Z,1007.6
2017-08-23T07:37:50.955Z,1007.62
2017-08-23T07:38:31.569Z,1007.66
2017-08-23T07:39:12.010Z,1007.62
2017-08-23T07:39:52.394Z,1007.61
2017-08-23T07:40:32.866Z,1007.64
2017-08-23T07:41:13.182Z,1007.62
2017-08-23T07:43:43.922Z,1007.52
2017-08-23T07:44:24.198Z,1007.53
2017-08-23T07:45:04.642Z,1007.52
2017-08-23T07:45:45.193Z,1007.52
2017-08-23T07:46:25.669Z,1007.53
2017-08-23T07:47:09.650Z,1007.54
2017-08-23T07:47:50.167Z,1007.53
2017-08-23T07:48:30.630Z,1007.55
2017-08-23T07:49:11.268Z,1007.56
2017-08-23T07:49:51.521Z,1007.56
2017-08-23T07:50:32.024Z,1007.5
2017-08-23T07:51:12.460Z,1007.56
2017-08-23T07:51:52.884Z,1007.55
2017-08-23T07:52:34.129Z,1007.56
2017-08-23T07:53:14.960Z,1007.55
2017-08-23T07:53:55.365Z,1007.55
2017-08-23T07:54:35.817Z,1007.55
2017-08-23T07:55:16.254Z,1007.56
2017-08-23T07:55:56.681Z,1007.56
2017-08-23T07:56:37.130Z,1007.56
2017-08-23T07:57:17.532Z,1007.57
2017-08-23T07:57:58.053Z,1007.59
2017-08-23T07:58:38.508Z,1007.58
2017-08-23T07:59:18.881Z,1007.6
2017-08-23T07:59:59.308Z,1007.55
2017-08-23T08:00:39.692Z,1007.51
2017-08-23T08:01:20.172Z,1007.5
2017-08-23T08:02:00.560Z,1007.51
2017-08-23T08:02:41.001Z,1007.45
2017-08-23T08:03:21.996Z,1007.47
2017-08-23T08:04:01.917Z,1007.46
2017-08-23T08:04:43.340Z,1007.51
2017-08-23T08:05:23.903Z,1007.5
2017-08-23T08:06:04.283Z,1007.48
2017-08-23T08:06:44.725Z,1007.48
2017-08-23T08:07:25.220Z,1007.47
2017-08-23T08:08:05.617Z,1007.49
2017-08-23T08:08:46.042Z,1007.48
2017-08-23T08:09:26.483Z,1007.48
2017-08-23T08:10:06.945Z,1007.48
2017-08-23T08:10:47.322Z,1007.46
2017-08-23T08:11:27.767Z,1007.48
2017-08-23T08:12:08.170Z,1007.5
2017-08-23T08:12:48.595Z,1007.46
2017-08-23T08:13:29.050Z,1007.46
2017-08-23T08:14:09.509Z,1007.48
2017-08-23T08:14:50.657Z,1007.43
2017-08-23T08:15:31.165Z,1007.43
2017-08-23T08:16:11.572Z,1007.47
2017-08-23T08:16:52.053Z,1007.44
2017-08-23T08:17:32.485Z,1007.47
2017-08-23T08:18:12.864Z,1007.44
2017-08-23T08:18:54.066Z,1007.46
2017-08-23T08:19:35.137Z,1007.41
2017-08-23T08:20:15.591Z,1007.4
2017-08-23T08:20:57.360Z,1007.36
2017-08-23T08:21:38.465Z,1007.36
2017-08-23T08:22:21.146Z,1007.34
2017-08-23T08:23:01.494Z,1007.34
2017-08-23T08:23:41.960Z,1007.37
2017-08-23T08:24:23.758Z,1007.35
2017-08-23T08:25:04.369Z,1007.36
2017-08-23T08:25:45.369Z,1007.32
2017-08-23T08:26:25.960Z,1007.36
2017-08-23T08:27:06.242Z,1007.29
2017-08-23T08:27:46.764Z,1007.4
2017-08-23T08:28:27.214Z,1007.39
2017-08-23T08:29:08.073Z,1007.4
2017-08-23T08:35:57.175Z,1007.32
2017-08-23T08:36:37.501Z,1007.28
2017-08-23T08:37:18.077Z,1007.23
2017-08-23T08:37:59.030Z,1007.27
2017-08-23T08:38:39.574Z,1007.28
2017-08-23T08:39:20.098Z,1007.27
2017-08-23T08:40:00.478Z,1007.26
2017-08-23T08:40:41.201Z,1007.28
2017-08-23T08:41:21.613Z,1007.32
2017-08-23T08:42:06.471Z,1007.33
2017-08-23T08:49:06.222Z,1007.25
2017-08-23T08:49:45.924Z,1007.26
2017-08-23T08:50:26.936Z,1007.24
2017-08-23T08:51:07.104Z,1007.24
2017-08-23T08:51:47.626Z,1007.23
2017-08-23T08:52:29.163Z,1007.31
2017-08-23T08:53:11.523Z,1007.24
2017-08-23T08:53:52.084Z,1007.27
2017-08-23T08:54:32.271Z,1007.31
2017-08-23T08:55:12.736Z,1007.27
2017-08-23T08:55:53.810Z,1007.3
2017-08-23T08:56:34.197Z,1007.31
2017-08-23T08:57:14.535Z,1007.34
2017-08-23T08:57:54.980Z,1007.31
2017-08-23T08:58:35.596Z,1007.29
2017-08-23T08:59:15.973Z,1007.33
2017-08-23T08:59:56.557Z,1007.31
2017-08-23T09:00:37.078Z,1007.26
2017-08-23T09:01:17.562Z,1007.28
2017-08-23T09:01:58.016Z,1007.29
2017-08-23T09:02:38.733Z,1007.26
2017-08-23T09:03:19.225Z,1007.3
2017-08-23T09:04:00.004Z,1007.26
2017-08-23T09:04:40.388Z,1007.27
2017-08-23T09:05:21.384Z,1007.22
2017-08-23T09:06:01.902Z,1007.24
2017-08-23T09:06:42.843Z,1007.25
2017-08-23T09:07:24.002Z,1007.28
2017-08-23T09:08:05.085Z,1007.21
2017-08-23T09:08:45.495Z,1007.23
2017-08-23T09:09:26.060Z,1007.23
2017-08-23T09:10:06.835Z,1007.25
2017-08-23T09:10:47.496Z,1007.3
2017-08-23T09:11:28.548Z,1007.21
2017-08-23T09:12:10.448Z,1007.23
2017-08-23T09:12:50.933Z,1007.23
2017-08-23T09:13:31.300Z,1007.2
2017-08-23T09:14:11.728Z,1007.25
2017-08-23T09:14:52.295Z,1007.21
2017-08-23T09:15:32.810Z,1007.25
2017-08-23T09:16:13.794Z,1007.22
2017-08-23T09:16:53.892Z,1007.32
2017-08-23T09:17:34.425Z,1007.28
2017-08-23T09:18:14.859Z,1007.27
2017-08-23T09:18:55.348Z,1007.28
2017-08-23T09:19:35.911Z,1007.25